Addieville, Illinois
Current Conditions -  °F | °C
As of 4:55 AM on Thursday 23 Oct 2014 (Local Time) from KSAR Reporting Station
Haze Haze  
Wind Chill: 38°   Ceiling: 500
Heat Index: 38°   Visibility: 0.75mi
Dew Point: 37°   Wind: 0mph
Humidity: 97%   Direction: NA
Pressure: 30.22"   Gusts: NA
Location:  38.39°N, 89.49°W
Report Text: KSAR 230955Z AUTO 00000KT 3/4SM BR VV005 03/03 A3022 RMK AO2 T00310027
Loading
Personal Weather Stations






























Interactive Weather Map
Tropical Storm Tracking
New forecast layout! Learn more

10-Day Weather Forecast

Advertisements
Track Severe Weather on mobile